Time;durP1;ratioP1;P1;durP2;ratioP2;P2;SDS_P1;SDS_P2;PMS_P1;PMS_P2;Temp;Humidity;BMP_temperature;BMP_pressure;BME280_temperature;BME280_humidity;BME280_pressure;Samples;Min_cycle;Max_cycle;Signal;HPM_P1;HPM_P2
2021/08/29 00:02:23;;;;;;;;;;;;;;;21.60;85.93;98970.88;5031936;28;803;-60
2021/08/29 00:04:50;;;;;;;;;;;;;;;21.70;86.03;98965.06;5031973;28;904;-60
2021/08/29 00:07:16;;;;;;;;;;;;;;;21.73;85.77;98973.28;5031934;28;814;-60
2021/08/29 00:09:43;;;;;;;;;;;;;;;21.75;86.19;98967.94;5031891;28;885;-60
2021/08/29 00:12:10;;;;;;;;;;;;;;;21.78;86.05;98957.72;5031815;28;874;-60
2021/08/29 00:14:37;;;;;;;;;;;;;;;21.77;85.75;98965.41;5031716;28;1863;-60
2021/08/29 00:17:04;;;;;;;;;;;;;;;21.76;85.99;98968.69;5031472;28;1242;-60
2021/08/29 00:19:30;;;;;;;;;;;;;;;21.74;86.06;98965.63;5031840;28;857;-60
2021/08/29 00:21:57;;;;;;;;;;;;;;;21.73;86.06;98958.47;5031675;28;846;-60
2021/08/29 00:24:24;;;;;;;;;;;;;;;21.70;86.17;98956.63;5031651;28;866;-60
2021/08/29 00:26:51;;;;;;;;;;;;;;;21.70;85.65;98956.63;5031594;28;791;-60
2021/08/29 00:29:17;;;;;;;;;;;;;;;21.67;85.64;98952.03;5030399;28;1187;-61
2021/08/29 00:31:44;;;;;;;;;;;;;;;21.60;85.93;98944.81;5031484;28;803;-60
2021/08/29 00:34:11;;;;;;;;;;;;;;;21.53;86.10;98953.69;5031691;28;1973;-60
2021/08/29 00:36:37;;;;;;;;;;;;;;;21.50;86.32;98943.47;5031137;28;814;-60
2021/08/29 00:39:03;;;;;;;;;;;;;;;21.54;86.59;98952.44;5031522;28;857;-60
2021/08/29 00:41:29;;;;;;;;;;;;;;;21.54;86.17;98946.81;5031529;28;858;-60
2021/08/29 00:43:55;;;;;;;;;;;;;;;21.49;86.25;98948.31;5031599;28;830;-60
2021/08/29 00:46:22;;;;;;;;;;;;;;;21.43;86.18;98946.72;5031452;28;862;-60
2021/08/29 00:48:52;;;;;;;;;;;;;;;21.39;86.69;98947.69;5031448;28;924;-60
2021/08/29 00:51:18;;;;;;;;;;;;;;;21.35;86.68;98955.56;5030267;28;1305;-60
2021/08/29 00:53:48;;;;;;;;;;;;;;;21.30;86.98;98950.69;5031244;28;1939;-60
2021/08/29 00:56:15;;;;;;;;;;;;;;;21.33;87.06;98952.47;5030081;28;1449;-60
2021/08/29 00:58:43;;;;;;;;;;;;;;;21.39;87.26;98958.16;5031476;28;894;-60
2021/08/29 01:01:10;;;;;;;;;;;;;;;21.48;87.08;98951.63;5031492;28;881;-60
2021/08/29 01:03:38;;;;;;;;;;;;;;;21.53;86.82;98939.63;5030004;28;885;-61
2021/08/29 01:06:24;;;;;;;;;;;;;;;21.56;86.88;98955.53;5030028;28;1307;-60
2021/08/29 01:08:56;;;;;;;;;;;;;;;21.65;86.82;98946.91;5031218;28;894;-60
2021/08/29 01:11:25;;;;;;;;;;;;;;;21.75;86.52;98953.13;5031216;28;877;-61
2021/08/29 01:13:55;;;;;;;;;;;;;;;21.87;85.84;98943.50;5031922;28;1898;-60
2021/08/29 01:16:23;;;;;;;;;;;;;;;21.93;85.73;98947.09;5031160;28;1215;-60
2021/08/29 01:18:51;;;;;;;;;;;;;;;21.98;85.23;98942.78;5031225;28;795;-60
2021/08/29 01:21:23;;;;;;;;;;;;;;;21.98;85.41;98949.19;5031195;28;877;-61
2021/08/29 01:23:53;;;;;;;;;;;;;;;22.01;85.22;98938.97;5031114;28;873;-60
2021/08/29 01:26:27;;;;;;;;;;;;;;;22.01;84.88;98928.47;5029690;28;1192;-61
2021/08/29 01:28:55;;;;;;;;;;;;;;;22.00;84.55;98926.19;5031157;28;822;-60
2021/08/29 01:31:22;;;;;;;;;;;;;;;21.95;84.80;98924.84;5031751;28;842;-61
2021/08/29 01:33:49;;;;;;;;;;;;;;;21.90;85.14;98922.78;5031193;28;1914;-60
2021/08/29 01:36:17;;;;;;;;;;;;;;;21.87;84.98;98923.00;5029993;28;1421;-60
2021/08/29 01:38:45;;;;;;;;;;;;;;;21.80;85.26;98925.00;5031016;28;905;-60
2021/08/29 01:41:12;;;;;;;;;;;;;;;21.78;85.38;98933.19;5031108;28;827;-60
2021/08/29 01:43:40;;;;;;;;;;;;;;;21.78;85.44;98936.00;5031109;28;826;-60
2021/08/29 01:46:07;;;;;;;;;;;;;;;21.77;85.39;98934.47;5030915;28;862;-60
2021/08/29 01:48:35;;;;;;;;;;;;;;;21.79;85.17;98934.72;5031276;28;841;-60
2021/08/29 01:51:02;;;;;;;;;;;;;;;21.80;85.30;98925.00;5034762;28;826;-60
2021/08/29 01:53:29;;;;;;;;;;;;;;;21.77;85.19;98928.84;5034321;28;1894;-60
2021/08/29 01:55:55;;;;;;;;;;;;;;;21.70;85.26;98915.25;5034278;28;810;-60
2021/08/29 01:58:22;;;;;;;;;;;;;;;21.65;85.40;98915.97;5034385;28;818;-60
2021/08/29 02:00:56;;;;;;;;;;;;;;;21.58;85.42;98917.19;5034155;28;865;-60
2021/08/29 02:03:24;;;;;;;;;;;;;;;21.53;85.27;98900.28;5032974;28;885;-60
2021/08/29 02:05:54;;;;;;;;;;;;;;;21.45;85.88;98902.78;5034161;28;897;-60
2021/08/29 02:08:20;;;;;;;;;;;;;;;21.46;85.83;98903.56;5034140;28;815;-60
2021/08/29 02:10:50;;;;;;;;;;;;;;;21.50;85.69;98904.09;5034078;28;869;-60
2021/08/29 02:13:20;;;;;;;;;;;;;;;21.52;85.53;98895.94;5033976;28;1890;-60
2021/08/29 02:15:52;;;;;;;;;;;;;;;21.51;85.57;98895.19;5033950;28;1206;-60
2021/08/29 02:18:21;;;;;;;;;;;;;;;21.48;85.25;98898.22;5034026;28;819;-60
2021/08/29 02:20:48;;;;;;;;;;;;;;;21.46;85.72;98890.25;5033895;28;814;-60
2021/08/29 02:23:16;;;;;;;;;;;;;;;21.46;85.55;98890.25;5033876;28;941;-60
2021/08/29 02:25:45;;;;;;;;;;;;;;;21.46;85.59;98884.66;5033715;28;861;-60
2021/08/29 02:28:12;;;;;;;;;;;;;;;21.44;85.56;98880.81;5033771;28;866;-60
2021/08/29 02:30:40;;;;;;;;;;;;;;;21.41;85.80;98885.34;5033995;28;854;-60
2021/08/29 02:33:06;;;;;;;;;;;;;;;21.36;85.68;98884.03;5033590;28;1914;-60
2021/08/29 02:35:33;;;;;;;;;;;;;;;21.28;85.58;98885.75;5033664;28;881;-60
2021/08/29 02:38:00;;;;;;;;;;;;;;;21.21;85.66;98875.75;5033551;28;886;-60
2021/08/29 02:40:29;;;;;;;;;;;;;;;21.18;85.89;98873.91;5033527;28;807;-60
2021/08/29 02:42:55;;;;;;;;;;;;;;;21.22;85.92;98865.28;5033437;28;866;-60
2021/08/29 02:45:22;;;;;;;;;;;;;;;21.23;85.80;98864.03;5033444;28;877;-60
2021/08/29 02:47:50;;;;;;;;;;;;;;;21.24;85.88;98859.94;5033427;28;811;-60
2021/08/29 02:50:18;;;;;;;;;;;;;;;21.24;86.00;98859.16;5033330;28;811;-61
2021/08/29 02:52:45;;;;;;;;;;;;;;;21.23;86.19;98855.59;5033188;28;1948;-60
2021/08/29 02:55:13;;;;;;;;;;;;;;;21.27;86.43;98849.72;5033129;28;834;-60
2021/08/29 02:57:40;;;;;;;;;;;;;;;21.33;86.22;98847.72;5033231;28;826;-60
2021/08/29 03:00:06;;;;;;;;;;;;;;;21.36;85.85;98844.69;5032755;28;858;-60
2021/08/29 03:02:33;;;;;;;;;;;;;;;21.38;86.00;98844.22;5033096;28;886;-60
2021/08/29 03:05:00;;;;;;;;;;;;;;;21.37;85.68;98846.22;5032996;28;858;-60
2021/08/29 03:07:26;;;;;;;;;;;;;;;21.38;85.74;98844.22;5033023;28;865;-60
2021/08/29 03:09:53;;;;;;;;;;;;;;;21.38;85.34;98850.59;5032950;28;862;-60
2021/08/29 03:12:20;;;;;;;;;;;;;;;21.30;85.47;98848.75;5032958;28;811;-60
2021/08/29 03:14:47;;;;;;;;;;;;;;;21.25;85.80;98850.25;5032747;28;1943;-60
2021/08/29 03:17:14;;;;;;;;;;;;;;;21.20;85.67;98845.34;5032612;28;1434;-60
2021/08/29 03:19:41;;;;;;;;;;;;;;;21.17;85.93;98849.16;5032781;28;905;-60
2021/08/29 03:22:08;;;;;;;;;;;;;;;21.13;86.08;98851.41;5032669;28;856;-60
2021/08/29 03:24:35;;;;;;;;;;;;;;;21.08;86.18;98852.13;5032886;28;863;-60
2021/08/29 03:27:02;;;;;;;;;;;;;;;21.05;86.07;98851.09;5032614;28;831;-60
2021/08/29 03:29:28;;;;;;;;;;;;;;;21.04;86.36;98860.00;5032586;28;803;-60
2021/08/29 03:31:57;;;;;;;;;;;;;;;21.01;86.35;98851.31;5032515;28;823;-60
2021/08/29 03:34:24;;;;;;;;;;;;;;;21.01;86.32;98856.91;5032407;28;1914;-60
2021/08/29 03:36:50;;;;;;;;;;;;;;;21.04;86.44;98865.63;5032700;28;815;-60
2021/08/29 03:39:16;;;;;;;;;;;;;;;21.06;86.30;98860.28;5032420;28;843;-60
2021/08/29 03:41:44;;;;;;;;;;;;;;;21.03;86.08;98870.47;5032357;28;818;-60
2021/08/29 03:44:12;;;;;;;;;;;;;;;21.05;86.18;98873.56;5032340;28;870;-60
2021/08/29 03:46:39;;;;;;;;;;;;;;;21.06;86.16;98875.13;5032264;28;897;-60
2021/08/29 03:49:06;;;;;;;;;;;;;;;21.00;86.04;98877.09;5032463;28;901;-60
2021/08/29 03:51:34;;;;;;;;;;;;;;;20.95;86.36;98877.81;5032474;28;831;-60
2021/08/29 03:54:01;;;;;;;;;;;;;;;20.92;86.40;98878.81;5031873;28;1949;-60
2021/08/29 03:56:29;;;;;;;;;;;;;;;20.92;86.31;98887.22;5032081;28;1534;-60
2021/08/29 03:58:55;;;;;;;;;;;;;;;20.96;86.38;98884.97;5032064;28;861;-60
2021/08/29 04:01:22;;;;;;;;;;;;;;;21.00;86.68;98883.47;5032019;28;823;-60
2021/08/29 04:03:49;;;;;;;;;;;;;;;21.10;86.30;98884.09;5032210;28;845;-60
2021/08/29 04:06:17;;;;;;;;;;;;;;;21.19;86.24;98883.16;5031982;28;874;-60
2021/08/29 04:08:54;;;;;;;;;;;;;;;21.30;85.84;98886.03;5031919;28;914;-60
2021/08/29 04:11:27;;;;;;;;;;;;;;;21.41;85.77;98886.16;5031320;28;1006;-60
2021/08/29 04:13:54;;;;;;;;;;;;;;;21.54;85.33;98882.16;5031749;28;1965;-60
2021/08/29 04:16:21;;;;;;;;;;;;;;;21.65;85.01;98887.09;5031461;28;1396;-60
2021/08/29 04:18:47;;;;;;;;;;;;;;;21.75;84.48;98885.63;5032051;28;906;-60
2021/08/29 04:21:15;;;;;;;;;;;;;;;21.82;84.22;98891.53;5031747;28;794;-60
2021/08/29 04:23:41;;;;;;;;;;;;;;;21.92;83.81;98888.53;5030293;28;1448;-60
2021/08/29 04:26:08;;;;;;;;;;;;;;;22.01;83.41;98883.44;5031652;28;845;-60
2021/08/29 04:28:35;;;;;;;;;;;;;;;22.05;83.25;98869.16;5031707;28;874;-61
2021/08/29 04:31:04;;;;;;;;;;;;;;;22.13;82.83;98883.53;5031678;28;909;-60
2021/08/29 04:33:30;;;;;;;;;;;;;;;22.20;82.93;98889.44;5031534;28;1981;-60
2021/08/29 04:35:57;;;;;;;;;;;;;;;22.27;82.73;98891.03;5031604;28;842;-60
2021/08/29 04:38:23;;;;;;;;;;;;;;;22.35;82.17;98897.72;5031562;28;810;-60
2021/08/29 04:40:51;;;;;;;;;;;;;;;22.42;81.77;98883.16;5031502;28;878;-60
2021/08/29 04:43:17;;;;;;;;;;;;;;;22.52;81.76;98892.13;5031735;28;905;-60
2021/08/29 04:45:43;;;;;;;;;;;;;;;22.60;81.61;98898.06;5031497;28;830;-60
2021/08/29 04:48:10;;;;;;;;;;;;;;;22.73;81.32;98895.53;5031414;28;870;-60
2021/08/29 04:50:36;;;;;;;;;;;;;;;22.90;80.89;98903.25;5031398;28;934;-60
2021/08/29 04:53:03;;;;;;;;;;;;;;;23.13;80.40;98906.88;5031243;28;1955;-60
2021/08/29 04:55:30;;;;;;;;;;;;;;;23.43;79.87;98907.94;5031448;28;803;-60
2021/08/29 04:57:57;;;;;;;;;;;;;;;23.70;78.77;98890.72;5031424;28;826;-60
2021/08/29 05:00:23;;;;;;;;;;;;;;;23.85;78.02;98902.50;5031351;28;865;-60
2021/08/29 05:02:49;;;;;;;;;;;;;;;23.96;77.54;98893.25;5031382;28;806;-60
2021/08/29 05:05:15;;;;;;;;;;;;;;;24.05;77.08;98890.91;5031258;28;890;-60
2021/08/29 05:07:42;;;;;;;;;;;;;;;24.06;76.73;98897.31;5030004;28;862;-60
2021/08/29 05:15:43;;;;;;;;;;;;;;;24.15;76.02;98905.50;5936917;22;1680;-60
2021/08/29 05:18:10;;;;;;;;;;;;;;;24.62;74.83;98908.44;4991946;28;826;-60
2021/08/29 05:20:35;;;;;;;;;;;;;;;25.00;73.37;98908.72;4991936;28;865;-60
2021/08/29 05:23:02;;;;;;;;;;;;;;;25.02;73.04;98896.88;4992884;28;889;-60
2021/08/29 05:25:29;;;;;;;;;;;;;;;25.13;72.52;98893.97;4995499;28;858;-60
2021/08/29 05:27:56;;;;;;;;;;;;;;;25.21;71.51;98885.72;4995548;28;858;-60
2021/08/29 05:30:23;;;;;;;;;;;;;;;25.23;71.51;98883.91;4995479;28;850;-60
2021/08/29 05:32:49;;;;;;;;;;;;;;;25.31;71.16;98880.50;4995416;28;1907;-60
2021/08/29 05:35:16;;;;;;;;;;;;;;;25.35;70.38;98881.75;4995371;28;807;-60
2021/08/29 05:37:42;;;;;;;;;;;;;;;25.42;69.68;98880.41;4995354;28;865;-60
2021/08/29 05:40:09;;;;;;;;;;;;;;;25.62;69.56;98876.34;4995309;28;870;-60
2021/08/29 05:42:35;;;;;;;;;;;;;;;26.02;67.91;98869.00;4995297;28;795;-61
2021/08/29 05:45:02;;;;;;;;;;;;;;;26.58;66.48;98875.28;4995202;28;830;-60
2021/08/29 05:47:29;;;;;;;;;;;;;;;27.02;64.97;98862.53;4995130;28;885;-61
2021/08/29 05:49:55;;;;;;;;;;;;;;;27.25;63.47;98865.81;4995226;28;819;-60
2021/08/29 05:52:22;;;;;;;;;;;;;;;27.61;62.07;98870.34;4995053;28;795;-61
2021/08/29 05:54:49;;;;;;;;;;;;;;;28.13;61.11;98866.03;4995011;28;1955;-61
2021/08/29 05:57:19;;;;;;;;;;;;;;;28.62;59.55;98865.53;4995235;28;855;-61
2021/08/29 05:59:46;;;;;;;;;;;;;;;28.95;58.77;98870.97;4995272;28;877;-61
2021/08/29 06:02:12;;;;;;;;;;;;;;;29.37;57.75;98866.09;4994845;28;1035;-61
2021/08/29 06:04:41;;;;;;;;;;;;;;;29.98;55.64;98857.25;4994889;28;807;-61
2021/08/29 06:07:08;;;;;;;;;;;;;;;30.28;54.56;98859.53;4995010;28;913;-61
2021/08/29 06:09:35;;;;;;;;;;;;;;;30.84;53.18;98854.19;4994737;28;851;-61
2021/08/29 06:12:00;;;;;;;;;;;;;;;31.30;51.91;98857.13;4994809;28;815;-61
2021/08/29 06:14:27;;;;;;;;;;;;;;;31.92;50.31;98859.94;4994491;28;1965;-61
2021/08/29 06:16:54;;;;;;;;;;;;;;;32.73;48.72;98862.91;5017303;28;1476;-61
2021/08/29 06:19:20;;;;;;;;;;;;;;;33.08;47.23;98861.03;5033966;28;849;-61
2021/08/29 06:21:47;;;;;;;;;;;;;;;32.90;47.22;98863.03;5033913;28;815;-62
2021/08/29 06:24:14;;;;;;;;;;;;;;;32.66;47.40;98858.00;5033819;28;861;-62
2021/08/29 06:26:41;;;;;;;;;;;;;;;32.87;46.73;98872.00;5033817;28;906;-62
2021/08/29 06:29:07;;;;;;;;;;;;;;;33.02;46.45;98863.31;5033742;28;922;-62
2021/08/29 06:31:34;;;;;;;;;;;;;;;33.22;45.63;98861.47;5033659;28;791;-61
2021/08/29 06:34:00;;;;;;;;;;;;;;;33.52;45.18;98857.63;5033533;28;1911;-62
2021/08/29 06:36:27;;;;;;;;;;;;;;;34.01;44.07;98863.09;5033142;28;818;-61
2021/08/29 06:38:57;;;;;;;;;;;;;;;34.38;43.33;98855.44;5033580;28;962;-62
2021/08/29 06:41:25;;;;;;;;;;;;;;;34.59;42.48;98857.84;5033536;28;849;-62
2021/08/29 06:43:53;;;;;;;;;;;;;;;34.77;41.58;98852.81;5033413;28;838;-62
2021/08/29 06:46:20;;;;;;;;;;;;;;;34.75;41.52;98856.28;5033380;28;839;-62
2021/08/29 06:48:47;;;;;;;;;;;;;;;35.11;41.37;98854.06;5032076;28;1232;-61
2021/08/29 06:51:14;;;;;;;;;;;;;;;35.05;40.98;98842.09;5033384;28;806;-61
2021/08/29 06:53:41;;;;;;;;;;;;;;;35.03;39.88;98848.41;5033195;28;1953;-61
2021/08/29 06:56:07;;;;;;;;;;;;;;;35.05;40.06;98850.69;5033323;28;885;-62
2021/08/29 06:58:34;;;;;;;;;;;;;;;34.68;40.53;98848.56;5033195;28;897;-61
2021/08/29 07:01:01;;;;;;;;;;;;;;;33.44;42.86;98847.59;5033106;28;795;-61
2021/08/29 07:03:27;;;;;;;;;;;;;;;32.43;45.13;98852.38;5033120;28;830;-61
2021/08/29 07:05:54;;;;;;;;;;;;;;;31.73;47.46;98848.94;5033074;28;802;-61
2021/08/29 07:08:21;;;;;;;;;;;;;;;31.38;47.64;98856.38;5033038;28;850;-61
2021/08/29 07:10:48;;;;;;;;;;;;;;;30.77;49.13;98851.31;5033077;28;884;-62
2021/08/29 07:13:14;;;;;;;;;;;;;;;30.30;49.94;98854.03;5032945;28;1897;-61
2021/08/29 07:15:40;;;;;;;;;;;;;;;30.02;50.22;98851.19;5032744;28;1376;-61
2021/08/29 07:18:07;;;;;;;;;;;;;;;29.65;50.98;98856.06;5032835;28;981;-61
2021/08/29 07:20:34;;;;;;;;;;;;;;;29.17;52.02;98855.47;5032835;28;865;-61
2021/08/29 07:23:00;;;;;;;;;;;;;;;28.90;52.71;98862.03;5032826;28;814;-62
2021/08/29 07:25:27;;;;;;;;;;;;;;;28.82;53.39;98864.03;5032755;28;892;-61
2021/08/29 07:27:53;;;;;;;;;;;;;;;28.69;53.32;98862.00;5032616;28;889;-61
2021/08/29 07:30:20;;;;;;;;;;;;;;;28.40;53.54;98866.75;5032693;28;822;-62
2021/08/29 07:32:47;;;;;;;;;;;;;;;28.16;54.26;98869.84;5032526;28;960;-61
2021/08/29 07:35:14;;;;;;;;;;;;;;;28.12;54.38;98870.16;5032451;28;2874;-62
2021/08/29 07:37:42;;;;;;;;;;;;;;;28.09;54.87;98872.03;5032482;28;881;-62
2021/08/29 07:40:09;;;;;;;;;;;;;;;28.22;54.63;98861.97;5031229;28;1322;-62
2021/08/29 07:42:36;;;;;;;;;;;;;;;28.38;54.75;98868.59;5032159;28;1112;-62
2021/08/29 07:45:02;;;;;;;;;;;;;;;28.52;54.37;98866.53;5032244;28;878;-61
2021/08/29 07:47:29;;;;;;;;;;;;;;;28.86;53.85;98860.84;5031345;28;888;-62
2021/08/29 07:49:56;;;;;;;;;;;;;;;29.12;52.90;98862.84;5032308;28;894;-61
2021/08/29 07:52:24;;;;;;;;;;;;;;;29.29;52.15;98862.41;5032379;28;897;-62
2021/08/29 07:54:50;;;;;;;;;;;;;;;29.48;51.66;98860.09;5032065;28;1949;-62
2021/08/29 07:57:17;;;;;;;;;;;;;;;29.63;50.53;98861.53;5032385;28;909;-62
2021/08/29 07:59:44;;;;;;;;;;;;;;;29.58;50.17;98865.31;5032022;28;834;-62
2021/08/29 08:02:11;;;;;;;;;;;;;;;29.60;49.78;98854.13;5032154;28;1011;-62
2021/08/29 08:04:38;;;;;;;;;;;;;;;29.77;49.46;98859.41;5032015;28;900;-62
2021/08/29 08:07:04;;;;;;;;;;;;;;;30.12;49.07;98852.94;5032053;28;818;-62
2021/08/29 08:09:31;;;;;;;;;;;;;;;31.12;46.99;98853.31;5031939;28;806;-62
2021/08/29 08:11:57;;;;;;;;;;;;;;;31.32;45.72;98842.28;5031874;28;835;-62
2021/08/29 08:14:24;;;;;;;;;;;;;;;30.93;47.33;98841.50;5031682;28;1882;-62
2021/08/29 08:16:51;;;;;;;;;;;;;;;31.01;46.84;98841.50;5031695;28;1474;-62
2021/08/29 08:19:18;;;;;;;;;;;;;;;32.33;44.07;98841.56;5031762;28;814;-61
2021/08/29 08:21:45;;;;;;;;;;;;;;;33.81;41.07;98840.00;5031759;28;855;-62
2021/08/29 08:24:12;;;;;;;;;;;;;;;34.56;39.53;98833.19;5031748;28;814;-62
2021/08/29 08:26:39;;;;;;;;;;;;;;;33.87;40.25;98840.50;5031719;28;818;-62
2021/08/29 08:29:05;;;;;;;;;;;;;;;33.28;40.81;98839.09;5031800;28;814;-62
2021/08/29 08:31:32;;;;;;;;;;;;;;;32.90;42.00;98830.78;5031780;28;791;-63
2021/08/29 08:33:58;;;;;;;;;;;;;;;32.35;42.71;98838.88;5031826;28;1914;-63
2021/08/29 08:36:24;;;;;;;;;;;;;;;31.60;45.03;98826.28;5031868;28;861;-62
2021/08/29 08:38:51;;;;;;;;;;;;;;;30.82;45.38;98830.44;5031785;28;842;-62
2021/08/29 08:41:20;;;;;;;;;;;;;;;30.26;47.09;98827.19;5031873;28;889;-63
2021/08/29 08:43:47;;;;;;;;;;;;;;;30.24;47.01;98819.19;5031330;28;889;-63
2021/08/29 08:46:13;;;;;;;;;;;;;;;30.72;45.84;98822.41;5031553;28;844;-62
2021/08/29 08:48:40;;;;;;;;;;;;;;;30.74;46.15;98822.59;5031610;28;783;-62
2021/08/29 08:51:08;;;;;;;;;;;;;;;30.85;46.29;98807.22;5031570;28;850;-62
2021/08/29 08:53:36;;;;;;;;;;;;;;;31.05;45.87;98805.56;5030066;28;1979;-62
2021/08/29 08:56:03;;;;;;;;;;;;;;;31.17;45.81;98808.03;5031427;28;814;-62
2021/08/29 08:58:30;;;;;;;;;;;;;;;31.77;44.76;98811.41;5033406;28;798;-62
2021/08/29 09:00:57;;;;;;;;;;;;;;;32.09;44.22;98799.34;5035619;28;790;-62
2021/08/29 09:03:24;;;;;;;;;;;;;;;33.04;41.85;98806.25;5035719;28;853;-62
2021/08/29 09:05:51;;;;;;;;;;;;;;;34.02;39.33;98781.50;5035352;28;835;-62
2021/08/29 09:08:18;;;;;;;;;;;;;;;34.82;37.88;98790.75;5035272;28;853;-62
2021/08/29 09:10:44;;;;;;;;;;;;;;;34.37;37.71;98782.19;5035264;28;818;-62
2021/08/29 09:13:11;;;;;;;;;;;;;;;33.64;38.94;98785.53;5035079;28;1890;-62
2021/08/29 09:15:38;;;;;;;;;;;;;;;32.89;40.25;98783.50;5035027;28;1341;-62
2021/08/29 09:18:05;;;;;;;;;;;;;;;32.39;41.78;98783.38;5035108;28;841;-62
2021/08/29 09:20:39;;;;;;;;;;;;;;;32.09;42.10;98782.19;5035130;28;822;-62
2021/08/29 09:23:07;;;;;;;;;;;;;;;31.72;43.52;98782.47;5035004;28;948;-62
2021/08/29 09:25:40;;;;;;;;;;;;;;;31.52;43.85;98775.69;5034969;28;818;-62
2021/08/29 09:28:10;;;;;;;;;;;;;;;31.88;43.46;98779.59;5035209;28;822;-63
2021/08/29 09:30:40;;;;;;;;;;;;;;;32.43;41.62;98778.03;5034902;28;830;-63
2021/08/29 09:33:06;;;;;;;;;;;;;;;33.06;40.60;98777.81;5034989;28;1910;-61
2021/08/29 09:35:36;;;;;;;;;;;;;;;33.71;39.53;98776.88;5035004;28;814;-62
2021/08/29 09:38:05;;;;;;;;;;;;;;;34.18;39.32;98774.22;5034876;28;826;-63
2021/08/29 09:40:36;;;;;;;;;;;;;;;34.14;38.80;98777.53;5034600;28;903;-62
2021/08/29 09:43:03;;;;;;;;;;;;;;;34.15;37.95;98775.44;5034905;28;836;-63
2021/08/29 09:45:31;;;;;;;;;;;;;;;33.77;38.03;98768.00;5034914;28;827;-62
2021/08/29 09:47:59;;;;;;;;;;;;;;;34.25;37.51;98767.66;5034531;28;922;-62
2021/08/29 09:50:26;;;;;;;;;;;;;;;34.57;36.14;98768.75;5033253;28;1438;-64
2021/08/29 09:53:00;;;;;;;;;;;;;;;34.50;37.30;98764.63;5034420;28;873;-62
2021/08/29 09:55:28;;;;;;;;;;;;;;;34.31;37.79;98771.00;5034344;28;898;-62
2021/08/29 09:57:56;;;;;;;;;;;;;;;33.33;38.09;98766.53;5034375;28;810;-63
2021/08/29 10:00:22;;;;;;;;;;;;;;;32.12;40.10;98753.22;5034661;28;760;-62
2021/08/29 10:03:09;;;;;;;;;;;;;;;31.75;40.84;98766.31;5034277;28;826;-62
2021/08/29 10:05:35;;;;;;;;;;;;;;;31.64;40.52;98761.75;5034120;28;1197;-62
2021/08/29 10:08:06;;;;;;;;;;;;;;;31.52;40.69;98752.09;5034158;28;890;-62
2021/08/29 10:10:35;;;;;;;;;;;;;;;32.59;38.61;98741.56;5033280;28;829;-62
2021/08/29 10:13:02;;;;;;;;;;;;;;;33.77;36.26;98753.69;5034063;28;1894;-62
2021/08/29 10:15:30;;;;;;;;;;;;;;;33.96;36.98;98747.34;5034212;28;929;-62
2021/08/29 10:17:59;;;;;;;;;;;;;;;33.80;37.11;98752.53;5033738;28;1390;-62
2021/08/29 10:20:26;;;;;;;;;;;;;;;33.54;38.09;98759.63;5033965;28;1245;-62
2021/08/29 10:22:53;;;;;;;;;;;;;;;33.21;38.55;98756.16;5033890;28;830;-62
2021/08/29 10:25:20;;;;;;;;;;;;;;;32.80;39.16;98756.28;5033825;28;791;-62
2021/08/29 10:27:49;;;;;;;;;;;;;;;32.57;39.33;98753.56;5032778;28;811;-62
2021/08/29 10:30:19;;;;;;;;;;;;;;;31.90;41.00;98751.19;5033841;28;862;-61
2021/08/29 10:32:46;;;;;;;;;;;;;;;31.17;42.01;98748.09;5033724;28;916;-63
2021/08/29 10:35:16;;;;;;;;;;;;;;;30.51;43.17;98754.16;5033624;28;1909;-62
2021/08/29 10:37:46;;;;;;;;;;;;;;;30.02;44.79;98752.25;5033657;28;925;-62
2021/08/29 10:40:14;;;;;;;;;;;;;;;29.84;45.14;98748.38;5033394;28;884;-62
2021/08/29 10:42:42;;;;;;;;;;;;;;;29.90;45.04;98753.91;5033558;28;854;-61
2021/08/29 10:45:10;;;;;;;;;;;;;;;30.66;43.04;98750.56;5033506;28;865;-62
2021/08/29 10:47:37;;;;;;;;;;;;;;;30.60;42.99;98746.34;5033473;28;818;-62
2021/08/29 10:50:06;;;;;;;;;;;;;;;30.85;43.42;98738.00;5033532;28;814;-62
2021/08/29 10:52:32;;;;;;;;;;;;;;;31.89;41.47;98747.56;5033809;28;1240;-64
2021/08/29 10:55:03;;;;;;;;;;;;;;;31.71;41.84;98755.28;5034168;28;1945;-63
2021/08/29 10:57:31;;;;;;;;;;;;;;;31.26;42.26;98750.38;5033322;28;814;-62
2021/08/29 11:00:12;;;;;;;;;;;;;;;31.30;41.61;98748.69;5033272;28;877;-62
2021/08/29 11:02:41;;;;;;;;;;;;;;;31.05;42.76;98742.78;5033250;28;877;-62
2021/08/29 11:05:08;;;;;;;;;;;;;;;31.79;41.00;98743.81;5033625;28;873;-62
2021/08/29 11:07:37;;;;;;;;;;;;;;;32.38;39.27;98748.31;5033590;28;810;-64
2021/08/29 11:10:05;;;;;;;;;;;;;;;32.75;38.62;98743.72;5033097;28;853;-62
2021/08/29 11:12:32;;;;;;;;;;;;;;;33.34;38.23;98745.13;5033172;28;814;-63
2021/08/29 11:15:00;;;;;;;;;;;;;;;33.55;37.53;98749.72;5032964;28;1885;-62
2021/08/29 11:17:33;;;;;;;;;;;;;;;33.50;36.80;98748.63;5031332;28;1395;-64
2021/08/29 11:20:02;;;;;;;;;;;;;;;32.57;38.09;98756.44;5032847;28;794;-63
2021/08/29 11:22:42;;;;;;;;;;;;;;;32.28;39.05;98753.16;5032645;28;822;-63
2021/08/29 11:25:21;;;;;;;;;;;;;;;32.95;37.44;98753.28;5032739;28;853;-62
2021/08/29 11:27:49;;;;;;;;;;;;;;;33.65;36.50;98738.34;5032967;28;884;-65
2021/08/29 11:30:25;;;;;;;;;;;;;;;34.29;36.04;98747.13;5032489;28;1187;-63
2021/08/29 11:32:53;;;;;;;;;;;;;;;34.81;34.95;98744.09;5032428;28;949;-63
2021/08/29 11:35:32;;;;;;;;;;;;;;;35.38;34.22;98753.50;5032510;28;1914;-62
2021/08/29 11:38:08;;;;;;;;;;;;;;;35.67;33.75;98744.16;5032680;28;794;-62
2021/08/29 11:40:53;;;;;;;;;;;;;;;35.11;33.14;98744.94;5032630;28;896;-63
2021/08/29 11:43:29;;;;;;;;;;;;;;;33.67;35.31;98747.13;5032478;28;901;-62
2021/08/29 11:45:59;;;;;;;;;;;;;;;33.25;35.90;98745.06;5032288;28;878;-62
2021/08/29 11:48:27;;;;;;;;;;;;;;;33.36;36.23;98742.44;5032333;28;861;-62
2021/08/29 11:50:54;;;;;;;;;;;;;;;34.03;34.84;98731.41;5032179;28;803;-62
2021/08/29 11:53:20;;;;;;;;;;;;;;;34.42;34.86;98732.44;5032219;28;1945;-62
2021/08/29 11:55:53;;;;;;;;;;;;;;;34.38;33.75;98728.50;5032152;28;869;-64
2021/08/29 11:58:21;;;;;;;;;;;;;;;34.14;34.43;98725.94;5033067;28;838;-64
2021/08/29 12:00:48;;;;;;;;;;;;;;;34.10;34.29;98736.28;5032615;28;890;-65
2021/08/29 12:03:15;;;;;;;;;;;;;;;34.04;34.17;98735.81;5032310;28;854;-63
2021/08/29 12:06:11;;;;;;;;;;;;;;;34.50;33.98;98724.47;5032488;28;921;-63
2021/08/29 12:08:47;;;;;;;;;;;;;;;34.95;33.12;98732.94;5019094;28;1599;-63
2021/08/29 12:11:14;;;;;;;;;;;;;;;34.62;33.21;98729.66;5032074;28;877;-65
2021/08/29 12:13:41;;;;;;;;;;;;;;;34.41;33.21;98728.03;5031754;28;1956;-63
2021/08/29 12:16:08;;;;;;;;;;;;;;;34.75;32.54;98720.66;5031958;28;1427;-63
2021/08/29 12:18:39;;;;;;;;;;;;;;;34.52;32.82;98718.13;5031769;28;865;-64
2021/08/29 12:21:06;;;;;;;;;;;;;;;34.70;31.58;98716.72;5032366;28;795;-63
2021/08/29 12:23:34;;;;;;;;;;;;;;;34.88;31.79;98719.50;5032011;28;846;-64
2021/08/29 12:26:03;;;;;;;;;;;;;;;35.45;31.35;98714.50;5031854;28;870;-63
2021/08/29 12:28:30;;;;;;;;;;;;;;;35.93;30.30;98705.88;5031605;28;968;-63
2021/08/29 12:30:56;;;;;;;;;;;;;;;35.98;29.01;98699.06;5031659;28;858;-64
2021/08/29 12:33:24;;;;;;;;;;;;;;;35.58;29.94;98706.16;5031035;28;1934;-63
2021/08/29 12:35:51;;;;;;;;;;;;;;;35.34;30.53;98701.50;5031541;28;873;-64
2021/08/29 12:38:20;;;;;;;;;;;;;;;35.40;30.29;98704.03;5031529;28;811;-63
2021/08/29 12:40:47;;;;;;;;;;;;;;;35.65;30.03;98698.03;5031515;28;905;-63
2021/08/29 12:43:13;;;;;;;;;;;;;;;35.92;30.75;98695.75;5031468;28;1934;-63
2021/08/29 12:45:40;;;;;;;;;;;;;;;35.87;29.40;98693.94;5031525;28;1036;-64
2021/08/29 12:48:08;;;;;;;;;;;;;;;35.85;29.33;98690.91;5031512;28;806;-63
2021/08/29 12:50:41;;;;;;;;;;;;;;;35.98;29.80;98689.69;5031423;28;948;-63
2021/08/29 12:53:10;;;;;;;;;;;;;;;36.02;29.50;98689.19;5031454;28;881;-64
2021/08/29 12:55:36;;;;;;;;;;;;;;;35.45;29.91;98686.53;5031434;28;826;-63
2021/08/29 12:58:04;;;;;;;;;;;;;;;35.50;30.58;98681.84;5031378;28;893;-63
2021/08/29 13:00:41;;;;;;;;;;;;;;;35.42;30.54;98684.88;5031370;28;802;-63
2021/08/29 13:03:08;;;;;;;;;;;;;;;35.71;30.17;98681.25;5031361;28;1957;-63
2021/08/29 13:05:38;;;;;;;;;;;;;;;35.78;30.33;98686.84;5031393;28;854;-63
2021/08/29 13:08:05;;;;;;;;;;;;;;;35.51;30.54;98684.09;5031234;28;871;-63
2021/08/29 13:10:31;;;;;;;;;;;;;;;35.64;30.35;98677.16;5031555;28;830;-65
2021/08/29 13:13:03;;;;;;;;;;;;;;;35.33;31.21;98680.59;5031578;28;878;-63
2021/08/29 13:15:30;;;;;;;;;;;;;;;34.96;32.02;98685.69;5031482;28;981;-65